createdAt,value
2017-09-14T00:00:01.578Z,2.12
2017-09-14T00:01:04.082Z,2.50
2017-09-14T00:02:06.692Z,3.03
2017-09-14T00:03:09.294Z,2.20
2017-09-14T00:04:11.937Z,2.00
2017-09-14T00:05:15.190Z,2.22
2017-09-14T00:06:17.685Z,2.25
2017-09-14T00:07:20.961Z,2.47
2017-09-14T00:08:23.458Z,1.90
2017-09-14T00:09:25.962Z,2.22
2017-09-14T00:10:28.518Z,1.90
2017-09-14T00:11:31.021Z,1.95
2017-09-14T00:12:33.504Z,2.00
2017-09-14T00:13:36.753Z,2.30
2017-09-14T00:14:39.373Z,2.42
2017-09-14T00:15:42.477Z,2.12
2017-09-14T00:16:45.119Z,3.12
2017-09-14T00:17:47.611Z,2.25
2017-09-14T00:18:50.179Z,2.30
2017-09-14T00:19:52.689Z,2.70
2017-09-14T00:20:56.899Z,2.47
2017-09-14T00:22:00.488Z,3.22
2017-09-14T00:23:03.932Z,3.47
2017-09-14T00:24:06.433Z,2.83
2017-09-14T00:25:08.951Z,3.20
2017-09-14T00:26:11.475Z,3.50
2017-09-14T00:27:15.849Z,3.22
2017-09-14T00:28:18.331Z,3.50
2017-09-14T00:29:20.884Z,3.83
2017-09-14T00:30:23.411Z,3.70
2017-09-14T00:31:27.063Z,3.12
2017-09-14T00:32:29.578Z,4.00
2017-09-14T00:33:34.457Z,3.87
2017-09-14T00:34:37.752Z,4.43
2017-09-14T00:35:40.340Z,4.47
2017-09-14T00:36:42.877Z,4.72
2017-09-14T00:37:47.939Z,4.10
2017-09-14T00:38:50.434Z,4.68
2017-09-14T00:39:52.931Z,4.07
2017-09-14T00:40:56.237Z,4.07
2017-09-14T00:41:58.854Z,4.40
2017-09-14T00:43:01.344Z,5.40
2017-09-14T00:44:04.167Z,4.12
2017-09-14T00:45:06.894Z,4.30
2017-09-14T00:46:11.304Z,4.28
2017-09-14T00:47:14.555Z,4.60
2017-09-14T00:48:17.037Z,4.10
2017-09-14T00:49:19.530Z,5.12
2017-09-14T00:50:22.332Z,5.90
2017-09-14T00:51:24.937Z,5.75
2017-09-14T00:52:27.524Z,5.72
2017-09-14T00:53:30.811Z,5.55
2017-09-14T00:54:34.219Z,5.75
2017-09-14T00:55:36.727Z,6.40
2017-09-14T00:56:39.220Z,6.43
2017-09-14T00:57:42.493Z,5.85
2017-09-14T00:58:44.978Z,7.28
2017-09-14T00:59:48.391Z,6.32
2017-09-14T01:00:51.016Z,6.80
2017-09-14T01:01:54.299Z,6.90
2017-09-14T01:02:58.337Z,6.93
2017-09-14T01:04:00.828Z,8.25
2017-09-14T01:05:03.324Z,6.65
2017-09-14T01:06:05.820Z,8.20
2017-09-14T01:07:09.188Z,7.72
2017-09-14T01:08:11.670Z,8.45
2017-09-14T01:09:15.048Z,8.23
2017-09-14T01:10:18.313Z,8.43
2017-09-14T01:11:20.985Z,7.55
2017-09-14T01:12:23.761Z,9.18
2017-09-14T01:13:26.417Z,8.35
2017-09-14T01:14:28.894Z,8.90
2017-09-14T01:15:31.787Z,9.50
2017-09-14T01:16:35.630Z,10.40
2017-09-14T01:17:38.217Z,9.02
2017-09-14T01:18:40.707Z,9.63
2017-09-14T01:19:43.972Z,11.52
2017-09-14T01:20:46.455Z,8.27
2017-09-14T01:21:49.814Z,10.18
2017-09-14T01:22:52.343Z,9.88
2017-09-14T01:23:54.848Z,10.90
2017-09-14T01:24:57.523Z,10.63
2017-09-14T01:26:00.019Z,11.23
2017-09-14T01:27:03.392Z,10.25
2017-09-14T01:28:05.971Z,10.80
2017-09-14T01:29:09.277Z,12.25
2017-09-14T01:30:11.812Z,11.82
2017-09-14T01:31:15.084Z,11.40
2017-09-14T01:32:17.597Z,12.23
2017-09-14T01:33:20.085Z,13.02
2017-09-14T01:34:22.573Z,11.93
2017-09-14T01:35:25.153Z,13.30
2017-09-14T01:36:27.760Z,12.75
2017-09-14T01:37:30.263Z,13.38
2017-09-14T01:38:32.765Z,12.90
2017-09-14T01:39:36.275Z,12.52
2017-09-14T01:40:38.823Z,12.80
2017-09-14T01:41:42.085Z,12.93
2017-09-14T01:42:44.586Z,12.15
2017-09-14T01:43:47.172Z,13.18
2017-09-14T01:44:49.857Z,13.75
2017-09-14T01:45:52.372Z,13.00
2017-09-14T01:46:55.626Z,13.27
2017-09-14T01:47:58.188Z,13.10
2017-09-14T01:49:00.673Z,12.88
2017-09-14T01:50:03.217Z,12.93
2017-09-14T01:51:05.736Z,14.23
2017-09-14T01:52:08.252Z,13.93
2017-09-14T01:53:10.735Z,13.25
2017-09-14T01:54:13.471Z,12.98
2017-09-14T01:55:15.976Z,13.15
2017-09-14T01:56:18.511Z,12.35
2017-09-14T01:57:21.083Z,12.37
2017-09-14T01:58:23.648Z,11.57
2017-09-14T01:59:26.224Z,11.10
2017-09-14T02:00:29.480Z,10.55
2017-09-14T02:01:31.983Z,13.10
2017-09-14T02:02:34.543Z,11.02
2017-09-14T02:03:37.064Z,11.32
2017-09-14T02:04:39.558Z,10.98
2017-09-14T02:05:42.082Z,10.95
2017-09-14T02:06:45.324Z,11.32
2017-09-14T02:07:47.816Z,10.50
2017-09-14T02:08:51.095Z,10.77
2017-09-14T02:09:54.371Z,10.05
2017-09-14T02:10:57.620Z,9.40
2017-09-14T02:12:00.460Z,8.52
2017-09-14T02:13:02.960Z,9.00
2017-09-14T02:14:05.454Z,9.02
2017-09-14T02:15:08.058Z,9.57
2017-09-14T02:16:10.543Z,8.68
2017-09-14T02:17:13.024Z,8.82
2017-09-14T02:18:15.508Z,8.73
2017-09-14T02:19:18.074Z,7.55
2017-09-14T02:20:21.375Z,7.60
2017-09-14T02:21:23.920Z,8.02
2017-09-14T02:22:27.187Z,7.43
2017-09-14T02:23:29.690Z,8.10
2017-09-14T02:24:32.947Z,7.78
2017-09-14T02:25:36.946Z,7.03
2017-09-14T02:26:39.520Z,6.65
2017-09-14T02:27:42.772Z,7.37
2017-09-14T02:28:45.267Z,7.55
2017-09-14T02:29:47.880Z,8.82
2017-09-14T02:30:50.369Z,7.78
2017-09-14T02:31:52.869Z,7.75
2017-09-14T02:32:55.413Z,7.93
2017-09-14T02:33:57.899Z,7.60
2017-09-14T02:35:00.474Z,8.13
2017-09-14T02:36:02.977Z,7.20
2017-09-14T02:37:05.488Z,8.70
2017-09-14T02:38:07.969Z,7.82
2017-09-14T02:39:10.525Z,7.50
2017-09-14T02:40:14.526Z,7.55
2017-09-14T02:41:17.768Z,8.55
2017-09-14T02:42:20.270Z,7.22
2017-09-14T02:43:24.281Z,6.47
2017-09-14T02:44:26.769Z,5.82
2017-09-14T02:45:30.020Z,6.82
2017-09-14T02:46:32.538Z,6.78
2017-09-14T02:47:35.040Z,7.37
2017-09-14T02:48:37.522Z,7.15
2017-09-14T02:49:40.055Z,6.80
2017-09-14T02:50:42.532Z,6.87
2017-09-14T02:51:45.110Z,7.30
2017-09-14T02:52:48.469Z,6.25
2017-09-14T02:53:51.056Z,7.00
2017-09-14T02:54:53.529Z,7.05
2017-09-14T02:55:56.345Z,7.10
2017-09-14T02:56:58.848Z,7.53
2017-09-14T02:58:01.898Z,7.18
2017-09-14T02:59:04.376Z,8.10
2017-09-14T03:00:06.859Z,7.70
2017-09-14T03:01:09.368Z,8.15
2017-09-14T03:02:12.781Z,7.20
2017-09-14T03:03:15.275Z,8.20
2017-09-14T03:04:17.843Z,7.20
2017-09-14T03:05:20.388Z,8.80
2017-09-14T03:06:22.858Z,6.72
2017-09-14T03:07:25.351Z,7.28
2017-09-14T03:08:27.924Z,8.77
2017-09-14T03:09:30.427Z,9.20
2017-09-14T03:10:33.800Z,8.68
2017-09-14T03:11:37.039Z,8.20
2017-09-14T03:12:40.343Z,8.52
2017-09-14T03:13:42.824Z,9.48
2017-09-14T03:14:45.355Z,10.10
2017-09-14T03:15:47.837Z,9.10
2017-09-14T03:16:50.418Z,8.75
2017-09-14T03:17:52.895Z,9.60
2017-09-14T03:18:55.419Z,8.27
2017-09-14T03:19:57.909Z,11.10
2017-09-14T03:21:01.897Z,8.95
2017-09-14T03:22:05.185Z,9.68
2017-09-14T03:23:07.674Z,8.95
2017-09-14T03:24:10.217Z,9.00
2017-09-14T03:25:12.696Z,10.45
2017-09-14T03:26:15.993Z,11.23
2017-09-14T03:27:19.292Z,10.15
2017-09-14T03:28:22.631Z,11.23
2017-09-14T03:29:25.120Z,9.98
2017-09-14T03:30:27.673Z,11.10
2017-09-14T03:31:30.159Z,12.37
2017-09-14T03:32:33.525Z,11.63
2017-09-14T03:33:36.858Z,11.00
2017-09-14T03:34:39.352Z,11.45
2017-09-14T03:35:41.835Z,11.77
2017-09-14T03:36:44.385Z,12.48
2017-09-14T03:37:46.893Z,11.88
2017-09-14T03:38:50.265Z,11.77
2017-09-14T03:39:53.359Z,12.43
2017-09-14T03:40:56.705Z,12.57
2017-09-14T03:41:59.201Z,15.52
2017-09-14T03:43:02.797Z,13.30
2017-09-14T03:44:06.054Z,13.93
2017-09-14T03:45:09.113Z,15.32
2017-09-14T03:46:11.613Z,13.43
2017-09-14T03:47:15.699Z,13.35
2017-09-14T03:48:18.192Z,14.25
2017-09-14T03:49:20.691Z,13.40
2017-09-14T03:50:23.203Z,12.18
2017-09-14T03:51:25.765Z,13.80
2017-09-14T03:52:28.392Z,13.23
2017-09-14T03:53:30.997Z,13.65
2017-09-14T03:54:33.520Z,12.63
2017-09-14T03:55:36.084Z,13.57
2017-09-14T03:56:38.618Z,13.00
2017-09-14T03:57:41.124Z,12.32
2017-09-14T03:58:43.602Z,12.20
2017-09-14T03:59:46.205Z,12.95
2017-09-14T04:00:48.716Z,13.98
2017-09-14T04:01:51.288Z,11.70
2017-09-14T04:02:53.768Z,12.65
2017-09-14T04:03:56.362Z,12.95
2017-09-14T04:04:58.873Z,11.93
2017-09-14T04:06:01.379Z,13.30
2017-09-14T04:07:03.892Z,11.63
2017-09-14T04:08:07.261Z,12.45
2017-09-14T04:09:09.766Z,13.18
2017-09-14T04:10:12.398Z,11.65
2017-09-14T04:11:14.884Z,12.98
2017-09-14T04:12:18.267Z,12.52
2017-09-14T04:13:21.533Z,13.00
2017-09-14T04:14:24.026Z,13.20
2017-09-14T04:15:26.525Z,12.90
2017-09-14T04:16:29.732Z,14.65
2017-09-14T04:17:32.211Z,13.68
2017-09-14T04:18:34.701Z,13.40
2017-09-14T04:19:37.969Z,14.60
2017-09-14T04:20:40.446Z,15.20
2017-09-14T04:21:43.729Z,14.43
2017-09-14T04:22:47.085Z,13.20
2017-09-14T04:23:49.572Z,14.18
2017-09-14T04:24:52.932Z,13.10
2017-09-14T04:25:56.942Z,13.93
2017-09-14T04:26:59.425Z,14.27
2017-09-14T04:28:02.680Z,13.38
2017-09-14T04:29:06.261Z,14.80
2017-09-14T04:30:08.827Z,15.75
2017-09-14T04:31:11.518Z,14.55
2017-09-14T04:32:14.030Z,16.75
2017-09-14T04:33:16.635Z,17.35
2017-09-14T04:34:19.123Z,17.42
2017-09-14T04:35:21.613Z,17.27
2017-09-14T04:36:24.138Z,15.50
2017-09-14T04:37:26.619Z,17.02
2017-09-14T04:38:29.206Z,16.65
2017-09-14T04:39:31.826Z,16.27
2017-09-14T04:40:34.299Z,15.85
2017-09-14T04:41:36.791Z,15.30
2017-09-14T04:42:40.057Z,14.75
2017-09-14T04:43:42.553Z,14.70
2017-09-14T04:44:45.859Z,17.48
2017-09-14T04:45:48.471Z,17.45
2017-09-14T04:46:50.964Z,17.10
2017-09-14T04:47:55.345Z,18.00
2017-09-14T04:48:57.837Z,17.58
2017-09-14T04:50:02.212Z,16.50
2017-09-14T04:51:04.769Z,16.80
2017-09-14T04:52:07.468Z,16.20
2017-09-14T04:53:09.966Z,18.05
2017-09-14T04:54:12.596Z,16.62
2017-09-14T04:55:16.599Z,16.23
2017-09-14T04:56:19.088Z,17.30
2017-09-14T04:57:22.365Z,16.50
2017-09-14T04:58:25.649Z,15.38
2017-09-14T04:59:28.936Z,15.98
2017-09-14T05:00:31.600Z,14.95
2017-09-14T05:01:34.915Z,15.95
2017-09-14T05:02:37.519Z,17.45
2017-09-14T05:03:40.047Z,16.37
2017-09-14T05:04:42.805Z,16.75
2017-09-14T05:05:46.064Z,16.02
2017-09-14T05:06:48.549Z,16.45
2017-09-14T05:07:51.805Z,14.70
2017-09-14T05:08:54.288Z,17.55
2017-09-14T05:09:57.559Z,15.40
2017-09-14T05:11:00.108Z,16.25
2017-09-14T05:12:02.593Z,14.95
2017-09-14T05:13:05.147Z,15.50
2017-09-14T05:14:08.403Z,16.67
2017-09-14T05:15:10.956Z,14.85
2017-09-14T05:16:13.557Z,14.32
2017-09-14T05:17:16.055Z,14.18
2017-09-14T05:18:19.315Z,14.75
2017-09-14T05:19:21.809Z,13.57
2017-09-14T05:20:25.091Z,13.90
2017-09-14T05:21:28.357Z,12.13
2017-09-14T05:22:31.662Z,12.60
2017-09-14T05:23:34.920Z,14.07
2017-09-14T05:24:37.427Z,13.30
2017-09-14T05:25:40.056Z,12.50
2017-09-14T05:26:42.566Z,13.30
2017-09-14T05:27:45.181Z,12.82
2017-09-14T05:28:47.687Z,12.18
2017-09-14T05:29:50.321Z,12.35
2017-09-14T05:30:53.597Z,12.10
2017-09-14T05:31:58.742Z,12.80
2017-09-14T05:33:02.028Z,12.30
2017-09-14T05:34:05.662Z,12.60
2017-09-14T05:35:08.164Z,12.02
2017-09-14T05:36:10.739Z,14.55
2017-09-14T05:37:13.280Z,11.57
2017-09-14T05:38:15.760Z,13.95
2017-09-14T05:39:18.336Z,12.52
2017-09-14T05:40:20.989Z,13.52
2017-09-14T05:41:23.481Z,11.20
2017-09-14T05:42:26.751Z,10.38
2017-09-14T05:43:29.236Z,8.57
2017-09-14T05:44:32.815Z,7.50
2017-09-14T05:45:35.320Z,8.35
2017-09-14T05:46:37.835Z,7.22
2017-09-14T05:47:40.358Z,7.20
2017-09-14T05:48:42.873Z,6.95
2017-09-14T05:49:45.387Z,6.93
2017-09-14T05:50:48.068Z,6.47
2017-09-14T05:51:50.563Z,6.47
2017-09-14T05:52:53.063Z,6.57
2017-09-14T05:53:56.336Z,6.40
2017-09-14T05:54:59.704Z,6.07
2017-09-14T05:56:02.194Z,7.00
2017-09-14T05:57:05.441Z,5.05
2017-09-14T05:58:08.088Z,5.80
2017-09-14T05:59:10.749Z,5.78
2017-09-14T06:00:13.272Z,5.97
2017-09-14T06:01:16.531Z,6.32
2017-09-14T06:02:19.019Z,5.87
2017-09-14T06:03:21.561Z,6.15
2017-09-14T06:04:24.080Z,5.37
2017-09-14T06:05:26.809Z,6.45
2017-09-14T06:06:29.321Z,5.97
2017-09-14T06:07:31.815Z,6.00
2017-09-14T06:08:34.339Z,6.78
2017-09-14T06:09:37.610Z,6.90
2017-09-14T06:10:40.870Z,6.85
2017-09-14T06:11:43.555Z,5.28
2017-09-14T06:12:46.040Z,6.15
2017-09-14T06:13:49.293Z,5.72
2017-09-14T06:14:51.798Z,6.10
2017-09-14T06:15:54.315Z,5.57
2017-09-14T06:16:56.850Z,6.95
2017-09-14T06:17:59.332Z,6.35
2017-09-14T06:19:01.845Z,6.53
2017-09-14T06:20:05.115Z,5.65
2017-09-14T06:21:08.412Z,6.15
2017-09-14T06:22:11.695Z,6.03
2017-09-14T06:23:14.947Z,5.60
2017-09-14T06:24:17.497Z,6.85
2017-09-14T06:25:19.984Z,5.75
2017-09-14T06:26:22.552Z,5.35
2017-09-14T06:27:25.081Z,6.03
2017-09-14T06:28:27.683Z,6.57
2017-09-14T06:29:30.160Z,6.00
2017-09-14T06:30:32.818Z,6.53
2017-09-14T06:31:35.306Z,7.30
2017-09-14T06:32:38.596Z,5.87
2017-09-14T06:33:41.843Z,6.05
2017-09-14T06:34:44.394Z,5.47
2017-09-14T06:35:46.877Z,6.15
2017-09-14T06:36:49.511Z,6.10
2017-09-14T06:37:52.111Z,5.47
2017-09-14T06:38:54.680Z,5.25
2017-09-14T06:39:57.278Z,5.05
2017-09-14T06:41:00.527Z,4.85
2017-09-14T06:42:03.038Z,5.03
2017-09-14T06:43:05.678Z,5.85
2017-09-14T06:44:08.391Z,4.90
2017-09-14T06:45:10.868Z,6.12
2017-09-14T06:46:13.446Z,5.22
2017-09-14T06:47:15.926Z,5.20
2017-09-14T06:48:18.454Z,5.82
2017-09-14T06:49:20.942Z,5.55
2017-09-14T06:50:23.421Z,5.22
2017-09-14T06:51:25.991Z,5.60
2017-09-14T06:52:29.240Z,5.07
2017-09-14T06:53:31.735Z,5.20
2017-09-14T06:54:34.342Z,5.55
2017-09-14T06:55:37.651Z,5.53
2017-09-14T06:56:40.129Z,5.82
2017-09-14T06:57:42.607Z,5.72
2017-09-14T06:58:45.104Z,4.70
2017-09-14T06:59:47.657Z,5.35
2017-09-14T07:00:50.264Z,5.97
2017-09-14T07:01:52.765Z,6.15
2017-09-14T07:02:55.254Z,5.12
2017-09-14T07:03:57.808Z,5.68
2017-09-14T07:05:00.317Z,6.18
2017-09-14T07:06:03.587Z,4.68
2017-09-14T07:07:06.108Z,5.10
2017-09-14T07:08:08.956Z,7.07
2017-09-14T07:09:11.485Z,5.43
2017-09-14T07:10:14.034Z,4.97
2017-09-14T07:11:16.527Z,6.53
2017-09-14T07:12:19.783Z,5.30
2017-09-14T07:13:22.292Z,6.70
2017-09-14T07:14:24.849Z,5.87
2017-09-14T07:15:28.126Z,5.20
2017-09-14T07:16:31.380Z,4.87
2017-09-14T07:17:33.866Z,5.65
2017-09-14T07:18:36.395Z,4.20
2017-09-14T07:19:38.897Z,5.43
2017-09-14T07:20:42.185Z,4.60
2017-09-14T07:21:44.838Z,6.37
2017-09-14T07:22:47.429Z,4.80
2017-09-14T07:23:50.771Z,4.97
2017-09-14T07:24:53.343Z,5.60
2017-09-14T07:25:55.842Z,5.32
2017-09-14T07:26:59.096Z,4.75
2017-09-14T07:28:01.646Z,7.25
2017-09-14T07:29:04.258Z,5.65
2017-09-14T07:30:06.853Z,5.35
2017-09-14T07:31:09.340Z,5.43
2017-09-14T07:32:11.845Z,6.00
2017-09-14T07:33:14.493Z,6.00
2017-09-14T07:34:16.996Z,6.30
2017-09-14T07:35:20.339Z,5.30
2017-09-14T07:36:22.837Z,6.40
2017-09-14T07:37:25.376Z,5.80
2017-09-14T07:38:27.890Z,4.78
2017-09-14T07:39:30.379Z,5.90
2017-09-14T07:40:32.900Z,7.00
2017-09-14T07:41:36.396Z,6.45
2017-09-14T07:42:39.687Z,6.68
2017-09-14T07:43:43.066Z,7.90
2017-09-14T07:44:46.353Z,6.70
2017-09-14T07:45:49.729Z,7.12
2017-09-14T07:46:52.224Z,6.50
2017-09-14T07:47:54.707Z,6.20
2017-09-14T07:48:57.193Z,5.75
2017-09-14T07:49:59.796Z,6.43
2017-09-14T07:51:03.095Z,6.30
2017-09-14T07:52:06.434Z,6.60
2017-09-14T07:53:08.961Z,6.30
2017-09-14T07:54:11.631Z,5.22
2017-09-14T07:55:14.128Z,4.28
2017-09-14T07:56:16.696Z,4.28
2017-09-14T07:57:19.186Z,3.42
2017-09-14T07:58:21.758Z,4.03
2017-09-14T07:59:24.257Z,3.62
2017-09-14T08:00:26.736Z,3.30
2017-09-14T08:01:29.970Z,3.28
2017-09-14T08:02:32.509Z,2.83
2017-09-14T08:03:35.036Z,3.40
2017-09-14T08:04:37.531Z,3.50
2017-09-14T08:05:40.036Z,2.60
2017-09-14T08:06:43.396Z,3.30
2017-09-14T08:07:45.996Z,3.30
2017-09-14T08:08:49.431Z,3.03
2017-09-14T08:09:52.027Z,3.22
2017-09-14T08:10:54.623Z,2.47
2017-09-14T08:11:57.879Z,2.70
2017-09-14T08:13:00.440Z,2.60
2017-09-14T08:14:02.928Z,2.10
2017-09-14T08:15:06.912Z,2.80
2017-09-14T08:16:09.408Z,1.40
2017-09-14T08:17:12.905Z,2.00
2017-09-14T08:18:15.405Z,1.90
2017-09-14T08:19:18.047Z,2.45
2017-09-14T08:20:20.541Z,1.70
2017-09-14T08:21:23.280Z,1.50
2017-09-14T08:22:25.766Z,1.67
2017-09-14T08:23:29.293Z,1.90
2017-09-14T08:24:31.779Z,1.60
2017-09-14T08:25:35.168Z,1.67
2017-09-14T08:26:38.529Z,1.95
2017-09-14T08:27:41.118Z,1.60
2017-09-14T08:28:44.582Z,2.12
2017-09-14T08:29:47.129Z,1.90
2017-09-14T08:30:49.637Z,2.28
2017-09-14T08:31:52.995Z,1.90
2017-09-14T08:32:55.488Z,1.40
2017-09-14T08:33:58.863Z,1.67
2017-09-14T08:35:01.366Z,1.55
2017-09-14T08:36:03.970Z,1.42
2017-09-14T08:37:06.638Z,1.40
2017-09-14T08:38:09.269Z,2.35
2017-09-14T08:39:11.792Z,1.33
2017-09-14T08:40:14.299Z,1.85
2017-09-14T08:41:16.782Z,1.42
2017-09-14T08:42:19.284Z,1.58
2017-09-14T08:43:21.783Z,1.70
2017-09-14T08:44:24.289Z,2.28
2017-09-14T08:45:26.783Z,1.45
2017-09-14T08:46:30.967Z,1.50
2017-09-14T08:47:34.897Z,1.83
2017-09-14T08:48:38.302Z,1.80
2017-09-14T08:49:41.560Z,1.98
2017-09-14T08:50:44.064Z,2.70
2017-09-14T08:51:46.556Z,2.05
2017-09-14T08:52:49.132Z,2.78
2017-09-14T08:53:51.657Z,2.50
2017-09-14T08:54:54.151Z,3.03
2017-09-14T08:55:56.668Z,2.70
2017-09-14T08:56:59.779Z,3.10
2017-09-14T08:58:02.291Z,3.10
2017-09-14T08:59:04.913Z,3.40
2017-09-14T09:00:07.400Z,2.83
2017-09-14T09:01:09.990Z,3.80
2017-09-14T09:02:13.434Z,3.40
2017-09-14T09:03:16.621Z,3.53
2017-09-14T09:04:19.132Z,2.65
2017-09-14T09:05:21.629Z,3.37
2017-09-14T09:06:24.879Z,2.67
2017-09-14T09:07:27.456Z,2.67
2017-09-14T09:08:29.949Z,2.78
2017-09-14T09:09:34.330Z,3.00
2017-09-14T09:10:37.675Z,3.53
2017-09-14T09:11:40.283Z,2.70
2017-09-14T09:12:42.921Z,2.80
2017-09-14T09:13:45.488Z,2.47
2017-09-14T09:14:48.104Z,2.42
2017-09-14T09:15:51.609Z,2.72
2017-09-14T09:16:54.107Z,2.33
2017-09-14T09:17:56.830Z,1.90
2017-09-14T09:18:59.392Z,2.50
2017-09-14T09:20:02.724Z,2.15
2017-09-14T09:21:05.370Z,2.10
2017-09-14T09:22:07.860Z,2.30
2017-09-14T09:23:10.490Z,1.90
2017-09-14T09:24:14.001Z,1.98
2017-09-14T09:25:16.532Z,1.80
2017-09-14T09:26:19.011Z,2.20
2017-09-14T09:27:22.275Z,1.70
2017-09-14T09:28:24.822Z,2.03
2017-09-14T09:29:29.621Z,1.65
2017-09-14T09:30:32.188Z,1.83
2017-09-14T09:31:34.700Z,1.87
2017-09-14T09:32:38.069Z,2.00
2017-09-14T09:33:40.558Z,1.70
2017-09-14T09:34:43.937Z,1.60
2017-09-14T09:35:47.302Z,1.60
2017-09-14T09:36:49.781Z,1.95
2017-09-14T09:37:52.256Z,2.00
2017-09-14T09:38:55.783Z,1.92
2017-09-14T09:39:58.302Z,1.45
2017-09-14T09:41:02.704Z,1.87
2017-09-14T09:42:05.206Z,1.73
2017-09-14T09:43:07.946Z,1.30
2017-09-14T09:44:10.420Z,1.67
2017-09-14T09:45:15.140Z,1.73
2017-09-14T09:46:18.383Z,1.60
2017-09-14T09:47:20.972Z,1.50
2017-09-14T09:48:24.234Z,1.30
2017-09-14T09:49:26.719Z,1.60
2017-09-14T09:50:29.252Z,1.50
2017-09-14T09:51:31.857Z,1.62
2017-09-14T09:52:34.369Z,1.62
2017-09-14T09:53:36.979Z,2.45
2017-09-14T09:54:39.469Z,1.40
2017-09-14T09:55:42.849Z,1.30
2017-09-14T09:56:46.121Z,1.67
2017-09-14T09:57:48.772Z,1.40
2017-09-14T09:58:51.276Z,1.40
2017-09-14T09:59:54.673Z,1.20
2017-09-14T10:00:57.955Z,1.70
2017-09-14T10:02:00.719Z,1.48
2017-09-14T10:03:04.084Z,1.30
2017-09-14T10:04:07.354Z,1.08
2017-09-14T10:05:09.905Z,1.40
2017-09-14T10:06:12.694Z,1.92
2017-09-14T10:07:15.169Z,1.20
2017-09-14T10:08:17.679Z,1.25
2017-09-14T10:09:20.240Z,1.02
2017-09-14T10:10:22.864Z,1.37
2017-09-14T10:11:25.355Z,1.30
2017-09-14T10:12:28.615Z,1.30
2017-09-14T10:13:31.127Z,1.20
2017-09-14T10:14:33.900Z,1.40
2017-09-14T10:15:36.408Z,1.30
2017-09-14T10:16:38.897Z,1.37
2017-09-14T10:17:42.172Z,1.30
2017-09-14T10:18:44.836Z,1.20
2017-09-14T10:19:47.314Z,0.98
2017-09-14T10:20:49.995Z,1.15
2017-09-14T10:21:53.304Z,1.20
2017-09-14T10:22:55.929Z,1.25
2017-09-14T10:23:58.481Z,1.30
2017-09-14T10:25:00.970Z,1.77
2017-09-14T10:26:03.475Z,1.00
2017-09-14T10:27:05.974Z,1.05
2017-09-14T10:28:08.502Z,1.05
2017-09-14T10:29:11.143Z,0.90
2017-09-14T10:30:14.625Z,1.48
2017-09-14T10:31:17.206Z,1.00
2017-09-14T10:32:20.465Z,1.10
2017-09-14T10:33:23.033Z,1.05
2017-09-14T10:34:25.577Z,1.40
2017-09-14T10:35:28.250Z,1.08
2017-09-14T10:36:30.877Z,1.10
2017-09-14T10:37:33.408Z,1.10
2017-09-14T10:38:35.897Z,1.27
2017-09-14T10:39:39.134Z,1.40
2017-09-14T10:40:41.632Z,1.25
2017-09-14T10:41:44.904Z,0.98
2017-09-14T10:42:47.414Z,1.00
2017-09-14T10:43:49.906Z,1.20
2017-09-14T10:44:52.413Z,1.30
2017-09-14T10:45:55.671Z,1.10
2017-09-14T10:46:58.167Z,1.08
2017-09-14T10:48:01.417Z,0.90
2017-09-14T10:49:03.891Z,0.95
2017-09-14T10:50:06.467Z,1.10
2017-09-14T10:51:09.751Z,1.00
2017-09-14T10:52:13.626Z,1.00
2017-09-14T10:53:16.118Z,1.00
2017-09-14T10:54:19.361Z,1.15
2017-09-14T10:55:21.859Z,1.10
2017-09-14T10:56:25.233Z,1.00
2017-09-14T10:57:27.789Z,1.00
2017-09-14T10:58:30.303Z,0.93
2017-09-14T10:59:33.568Z,1.20
2017-09-14T11:00:37.008Z,1.40
2017-09-14T11:01:39.605Z,1.05
2017-09-14T11:02:42.758Z,1.00
2017-09-14T11:03:45.266Z,1.35
2017-09-14T11:04:47.838Z,1.25
2017-09-14T11:05:51.208Z,1.20
2017-09-14T11:06:53.754Z,1.10
2017-09-14T11:07:56.342Z,1.20
2017-09-14T11:08:58.911Z,1.20
2017-09-14T11:10:01.408Z,1.17
2017-09-14T11:11:03.942Z,1.12
2017-09-14T11:12:06.433Z,1.25
2017-09-14T11:13:09.692Z,1.20
2017-09-14T11:14:12.651Z,1.20
2017-09-14T11:15:15.197Z,1.08
2017-09-14T11:16:17.680Z,1.58
2017-09-14T11:17:20.268Z,1.55
2017-09-14T11:18:22.757Z,1.40
2017-09-14T11:19:26.035Z,1.37
2017-09-14T11:20:29.405Z,1.48
2017-09-14T11:21:31.957Z,1.20
2017-09-14T11:22:35.161Z,1.17
2017-09-14T11:23:38.423Z,1.33
2017-09-14T11:24:41.015Z,1.62
2017-09-14T11:25:44.259Z,1.85
2017-09-14T11:26:46.780Z,1.60
2017-09-14T11:27:50.112Z,1.83
2017-09-14T11:28:52.601Z,1.40
2017-09-14T11:29:55.128Z,1.35
2017-09-14T11:30:57.643Z,1.67
2017-09-14T11:32:00.896Z,1.77
2017-09-14T11:33:03.409Z,1.30
2017-09-14T11:34:05.937Z,1.23
2017-09-14T11:35:08.419Z,1.42
2017-09-14T11:36:11.802Z,1.65
2017-09-14T11:37:15.048Z,1.65
2017-09-14T11:38:17.887Z,1.80
2017-09-14T11:39:20.387Z,1.30
2017-09-14T11:40:23.023Z,1.87
2017-09-14T11:41:25.528Z,1.75
2017-09-14T11:42:28.085Z,1.50
2017-09-14T11:43:30.589Z,1.70
2017-09-14T11:44:33.175Z,1.33
2017-09-14T11:45:36.422Z,1.92
2017-09-14T11:46:38.993Z,1.80
2017-09-14T11:47:41.480Z,1.70
2017-09-14T11:48:44.773Z,1.62
2017-09-14T11:49:48.016Z,1.52
2017-09-14T11:50:50.590Z,1.90
2017-09-14T11:51:53.072Z,1.90
2017-09-14T11:52:56.345Z,2.00
2017-09-14T11:53:58.840Z,1.50
2017-09-14T11:55:02.179Z,1.70
2017-09-14T11:56:04.673Z,2.05
2017-09-14T11:57:07.199Z,2.10
2017-09-14T11:58:09.809Z,2.37
2017-09-14T11:59:13.220Z,2.00
2017-09-14T12:00:15.725Z,1.95
2017-09-14T12:01:18.304Z,2.45
2017-09-14T12:02:20.781Z,1.70
2017-09-14T12:03:23.339Z,1.95
2017-09-14T12:04:25.836Z,2.25
2017-09-14T12:05:29.201Z,2.50
2017-09-14T12:06:32.531Z,2.05
2017-09-14T12:07:35.022Z,1.85
2017-09-14T12:08:37.501Z,1.65
2017-09-14T12:09:41.683Z,2.20
2017-09-14T12:10:44.205Z,1.45
2017-09-14T12:11:47.559Z,1.80
2017-09-14T12:12:50.049Z,2.17
2017-09-14T12:13:53.405Z,2.03
2017-09-14T12:14:55.932Z,1.70
2017-09-14T12:15:58.447Z,2.10
2017-09-14T12:17:01.028Z,1.60
2017-09-14T12:18:04.292Z,1.70
2017-09-14T12:19:06.783Z,1.90
2017-09-14T12:20:10.119Z,1.35
2017-09-14T12:21:12.733Z,1.83
2017-09-14T12:22:16.146Z,1.80
2017-09-14T12:23:18.715Z,1.75
2017-09-14T12:24:22.021Z,1.80
2017-09-14T12:25:24.605Z,1.70
2017-09-14T12:26:28.288Z,1.70
2017-09-14T12:27:30.788Z,1.77
2017-09-14T12:28:34.077Z,1.52
2017-09-14T12:29:37.341Z,1.67
2017-09-14T12:30:39.998Z,1.75
2017-09-14T12:31:42.475Z,1.50
2017-09-14T12:32:45.057Z,1.50
2017-09-14T12:33:47.572Z,1.48
2017-09-14T12:34:50.145Z,1.50
2017-09-14T12:35:52.642Z,1.15
2017-09-14T12:36:55.204Z,1.30
2017-09-14T12:37:57.728Z,1.58
2017-09-14T12:39:00.329Z,1.50
2017-09-14T12:40:02.815Z,1.27
2017-09-14T12:41:05.328Z,1.45
2017-09-14T12:42:07.870Z,1.50
2017-09-14T12:43:11.210Z,1.40
2017-09-14T12:44:13.776Z,1.27
2017-09-14T12:45:17.912Z,1.20
2017-09-14T12:46:21.252Z,1.80
2017-09-14T12:47:24.017Z,1.52
2017-09-14T12:48:26.542Z,1.12
2017-09-14T12:49:29.898Z,1.45
2017-09-14T12:50:32.393Z,1.33
2017-09-14T12:51:35.798Z,1.30
2017-09-14T12:52:38.347Z,1.42
2017-09-14T12:53:41.703Z,1.15
2017-09-14T12:54:44.243Z,1.42
2017-09-14T12:55:46.856Z,1.67
2017-09-14T12:56:49.977Z,1.73
2017-09-14T12:57:52.577Z,1.60
2017-09-14T12:58:55.212Z,2.42
2017-09-14T12:59:57.693Z,1.40
2017-09-14T13:01:00.195Z,1.30
2017-09-14T13:02:02.748Z,1.15
2017-09-14T13:03:05.235Z,1.30
2017-09-14T13:04:08.684Z,1.37
2017-09-14T13:05:11.193Z,1.50
2017-09-14T13:06:14.577Z,1.67
2017-09-14T13:07:17.077Z,1.62
2017-09-14T13:08:19.709Z,1.40
2017-09-14T13:09:22.188Z,1.30
2017-09-14T13:10:25.542Z,1.60
2017-09-14T13:11:28.033Z,1.98
2017-09-14T13:12:31.393Z,1.25
2017-09-14T13:13:34.008Z,1.20
2017-09-14T13:14:36.722Z,1.30
2017-09-14T13:15:39.309Z,1.33
2017-09-14T13:16:44.789Z,1.40
2017-09-14T13:17:47.333Z,1.35
2017-09-14T13:18:50.761Z,1.60
2017-09-14T13:19:53.856Z,1.37
2017-09-14T13:20:57.817Z,1.40
2017-09-14T13:22:00.314Z,1.60
2017-09-14T13:23:02.903Z,1.90
2017-09-14T13:24:05.424Z,1.42
2017-09-14T13:25:08.032Z,1.40
2017-09-14T13:26:10.642Z,1.20
2017-09-14T13:27:13.152Z,1.48
2017-09-14T13:28:15.742Z,1.35
2017-09-14T13:29:18.381Z,1.20
2017-09-14T13:30:21.356Z,1.50
2017-09-14T13:31:23.843Z,1.50
2017-09-14T13:32:26.410Z,1.35
2017-09-14T13:33:28.891Z,1.25
2017-09-14T13:34:32.282Z,1.30
2017-09-14T13:35:35.565Z,1.90
2017-09-14T13:36:38.037Z,1.27
2017-09-14T13:37:41.302Z,1.85
2017-09-14T13:38:43.796Z,1.40
2017-09-14T13:39:46.368Z,1.33
2017-09-14T13:40:48.963Z,1.55
2017-09-14T13:41:51.668Z,1.25
2017-09-14T13:42:54.158Z,1.40
2017-09-14T13:43:57.415Z,1.48
2017-09-14T13:45:00.796Z,1.50
2017-09-14T13:46:03.314Z,1.30
2017-09-14T13:47:06.095Z,1.70
2017-09-14T13:48:08.563Z,1.98
2017-09-14T13:49:11.171Z,1.40